Time;durP1;ratioP1;P1;durP2;ratioP2;P2;SDS_P1;SDS_P2;PMS_P1;PMS_P2;Temp;Humidity;BMP_temperature;BMP_pressure;BME280_temperature;BME280_humidity;BME280_pressure;Samples;Min_cycle;Max_cycle;Signal;HPM_P1;HPM_P2
2022/05/08 00:02:24;;;;;;;6.30;3.05;;;;;;;;;;5038423;28;20557;-66
2022/05/08 00:04:52;;;;;;;5.10;3.58;;;;;;;;;;5041488;28;20909;-66
2022/05/08 00:07:22;;;;;;;8.82;3.28;;;;;;;;;;5041349;28;20055;-64
2022/05/08 00:09:49;;;;;;;7.32;3.20;;;;;;;;;;5037999;28;20083;-65
2022/05/08 00:12:16;;;;;;;6.25;3.20;;;;;;;;;;5042040;28;20140;-64
2022/05/08 00:14:43;;;;;;;8.57;3.60;;;;;;;;;;5040235;28;20439;-65
2022/05/08 00:17:13;;;;;;;6.65;3.40;;;;;;;;;;5041840;28;20249;-65
2022/05/08 00:19:39;;;;;;;5.65;3.40;;;;;;;;;;5042996;28;20405;-65
2022/05/08 00:22:06;;;;;;;5.50;3.20;;;;;;;;;;5044110;28;20045;-66
2022/05/08 00:24:33;;;;;;;6.65;3.40;;;;;;;;;;5042020;28;20040;-66
2022/05/08 00:26:59;;;;;;;9.98;3.28;;;;;;;;;;5038642;28;20122;-65
2022/05/08 00:29:25;;;;;;;4.57;2.95;;;;;;;;;;5037908;28;20056;-65
2022/05/08 00:31:51;;;;;;;7.53;3.20;;;;;;;;;;5041196;28;20512;-65
2022/05/08 00:34:17;;;;;;;6.68;3.38;;;;;;;;;;5035794;28;20101;-66
2022/05/08 00:36:43;;;;;;;9.55;3.08;;;;;;;;;;5040935;28;20970;-66
2022/05/08 00:39:09;;;;;;;7.20;2.75;;;;;;;;;;5039803;28;20481;-65
2022/05/08 00:41:35;;;;;;;6.28;3.03;;;;;;;;;;5041856;28;20514;-66
2022/05/08 00:44:03;;;;;;;7.15;2.72;;;;;;;;;;5038838;28;20050;-65
2022/05/08 00:46:29;;;;;;;5.65;2.50;;;;;;;;;;5035695;28;20411;-64
2022/05/08 00:48:57;;;;;;;4.70;2.90;;;;;;;;;;5035653;28;20741;-65
2022/05/08 00:51:24;;;;;;;4.85;2.85;;;;;;;;;;5039089;28;20846;-64
2022/05/08 00:53:52;;;;;;;6.10;3.33;;;;;;;;;;5044387;28;20083;-64
2022/05/08 00:56:19;;;;;;;4.75;2.70;;;;;;;;;;5041842;28;20377;-64
2022/05/08 00:58:48;;;;;;;5.65;2.50;;;;;;;;;;5038024;28;20064;-65
2022/05/08 01:01:14;;;;;;;9.85;3.13;;;;;;;;;;5041190;28;20555;-63
2022/05/08 01:03:41;;;;;;;9.68;2.97;;;;;;;;;;5041811;28;20057;-65
2022/05/08 01:06:10;;;;;;;3.88;2.90;;;;;;;;;;5041038;28;20167;-65
2022/05/08 01:08:41;;;;;;;6.22;3.05;;;;;;;;;;5037439;28;20055;-65
2022/05/08 01:11:08;;;;;;;6.72;2.83;;;;;;;;;;5040482;28;20045;-64
2022/05/08 01:13:34;;;;;;;3.97;2.58;;;;;;;;;;5041845;28;20139;-64
2022/05/08 01:16:00;;;;;;;5.05;2.53;;;;;;;;;;5038477;28;20056;-65
2022/05/08 01:18:27;;;;;;;6.22;3.05;;;;;;;;;;5037646;28;20052;-65
2022/05/08 01:20:53;;;;;;;6.47;3.05;;;;;;;;;;5041952;28;20555;-65
2022/05/08 01:23:21;;;;;;;5.88;2.50;;;;;;;;;;5039753;28;20520;-65
2022/05/08 01:25:56;;;;;;;4.63;2.50;;;;;;;;;;5040789;28;20433;-65
2022/05/08 01:28:24;;;;;;;8.18;2.90;;;;;;;;;;5037217;28;20480;-64
2022/05/08 01:30:52;;;;;;;4.28;2.63;;;;;;;;;;5040969;28;20428;-66
2022/05/08 01:33:19;;;;;;;3.88;2.60;;;;;;;;;;5039805;28;20630;-65
2022/05/08 01:35:45;;;;;;;4.78;2.83;;;;;;;;;;5039880;28;20048;-66
2022/05/08 01:38:14;;;;;;;5.88;2.70;;;;;;;;;;5035656;28;20140;-64
2022/05/08 01:40:40;;;;;;;6.15;2.58;;;;;;;;;;5038451;28;20069;-66
2022/05/08 01:43:07;;;;;;;7.28;2.75;;;;;;;;;;5041237;28;20492;-65
2022/05/08 01:45:34;;;;;;;3.72;2.40;;;;;;;;;;5039140;28;20547;-65
2022/05/08 01:50:45;;;;;;;4.03;2.50;;;;;;;;;;5040583;28;20053;-64
2022/05/08 01:53:11;;;;;;;8.00;2.60;;;;;;;;;;5035788;28;20098;-65
2022/05/08 01:55:37;;;;;;;4.32;2.30;;;;;;;;;;5039008;28;20053;-67
2022/05/08 01:58:03;;;;;;;3.03;2.30;;;;;;;;;;5039384;28;20191;-65
2022/05/08 02:00:30;;;;;;;4.68;2.42;;;;;;;;;;5040883;28;20130;-64
2022/05/08 02:02:59;;;;;;;4.15;2.75;;;;;;;;;;5038148;28;20104;-64
2022/05/08 02:05:28;;;;;;;4.75;2.50;;;;;;;;;;5042122;28;20056;-66
2022/05/08 02:07:54;;;;;;;6.00;2.72;;;;;;;;;;5037884;28;20114;-66
2022/05/08 02:10:20;;;;;;;3.72;2.60;;;;;;;;;;5035656;28;20052;-63
2022/05/08 02:12:46;;;;;;;6.55;2.60;;;;;;;;;;5038438;28;20063;-65
2022/05/08 02:15:14;;;;;;;4.18;2.67;;;;;;;;;;5039708;28;20049;-63
2022/05/08 02:17:41;;;;;;;5.32;2.50;;;;;;;;;;5041139;28;20041;-64
2022/05/08 02:20:09;;;;;;;3.95;2.70;;;;;;;;;;5037867;28;20097;-63
2022/05/08 02:22:36;;;;;;;4.43;2.78;;;;;;;;;;5040090;28;20041;-66
2022/05/08 02:25:04;;;;;;;4.45;2.53;;;;;;;;;;5036690;28;20049;-64
2022/05/08 02:27:38;;;;;;;6.07;2.60;;;;;;;;;;5037342;28;20761;-69
2022/05/08 02:30:13;;;;;;;4.95;2.60;;;;;;;;;;5036387;28;20518;-65
2022/05/08 02:32:39;;;;;;;8.32;2.85;;;;;;;;;;5037132;28;20401;-66
2022/05/08 02:35:06;;;;;;;5.20;2.80;;;;;;;;;;5039617;28;20043;-64
2022/05/08 02:37:35;;;;;;;5.47;2.85;;;;;;;;;;5035272;28;20238;-65
2022/05/08 02:40:03;;;;;;;8.60;3.45;;;;;;;;;;5034839;28;20523;-64
2022/05/08 02:42:29;;;;;;;6.68;3.30;;;;;;;;;;5053288;28;20080;-63
2022/05/08 02:44:55;;;;;;;7.50;3.50;;;;;;;;;;5040189;28;20084;-64
2022/05/08 02:47:21;;;;;;;6.07;3.13;;;;;;;;;;5039299;28;20563;-65
2022/05/08 02:49:47;;;;;;;8.10;3.70;;;;;;;;;;5037993;28;20477;-67
2022/05/08 02:52:12;;;;;;;5.97;3.00;;;;;;;;;;5037308;28;20143;-66
2022/05/08 02:54:39;;;;;;;7.60;3.30;;;;;;;;;;5036463;28;20054;-65
2022/05/08 02:59:50;;;;;;;4.15;2.97;;;;;;;;;;5034796;28;20087;-65
2022/05/08 03:02:16;;;;;;;5.88;2.90;;;;;;;;;;5038713;28;20132;-65
2022/05/08 03:04:42;;;;;;;6.75;3.30;;;;;;;;;;5038250;28;20078;-64
2022/05/08 03:07:08;;;;;;;4.38;3.08;;;;;;;;;;5038286;28;20099;-64
2022/05/08 03:09:34;;;;;;;7.13;3.10;;;;;;;;;;5034741;28;20057;-65
2022/05/08 03:12:00;;;;;;;8.18;3.05;;;;;;;;;;5045424;28;20393;-67
2022/05/08 03:14:26;;;;;;;8.18;5.38;;;;;;;;;;5042330;28;20057;-64
2022/05/08 03:16:51;;;;;;;8.10;4.10;;;;;;;;;;5045111;28;20049;-63
2022/05/08 03:19:19;;;;;;;5.53;3.45;;;;;;;;;;5042045;28;20131;-64
2022/05/08 03:21:48;;;;;;;6.55;3.63;;;;;;;;;;5042101;28;21101;-64
2022/05/08 03:24:14;;;;;;;8.27;3.38;;;;;;;;;;5042632;28;20064;-64
2022/05/08 03:26:40;;;;;;;6.75;3.80;;;;;;;;;;5040989;28;20068;-64
2022/05/08 03:29:07;;;;;;;6.30;3.58;;;;;;;;;;5038454;28;20079;-65
2022/05/08 03:31:34;;;;;;;7.35;3.60;;;;;;;;;;5045589;28;20045;-65
2022/05/08 03:34:00;;;;;;;6.60;3.40;;;;;;;;;;5043834;28;20068;-63
2022/05/08 03:36:26;;;;;;;8.20;3.22;;;;;;;;;;5044704;28;20049;-64
2022/05/08 03:38:52;;;;;;;6.38;3.33;;;;;;;;;;5041539;28;20096;-65
2022/05/08 03:41:19;;;;;;;8.05;3.35;;;;;;;;;;5042014;28;20044;-65
2022/05/08 03:43:46;;;;;;;5.75;3.35;;;;;;;;;;5041619;28;20199;-65
2022/05/08 03:46:16;;;;;;;6.60;3.80;;;;;;;;;;5041302;28;20038;-66
2022/05/08 03:48:42;;;;;;;11.57;3.78;;;;;;;;;;5038209;28;20455;-64
2022/05/08 03:51:08;;;;;;;8.30;3.92;;;;;;;;;;5041984;28;20049;-65
2022/05/08 03:53:34;;;;;;;6.55;3.92;;;;;;;;;;5042128;28;20037;-64
2022/05/08 03:56:00;;;;;;;6.13;3.92;;;;;;;;;;5042842;28;20045;-65
2022/05/08 03:58:26;;;;;;;7.03;4.10;;;;;;;;;;5053793;28;20766;-66
2022/05/08 04:00:53;;;;;;;10.13;4.05;;;;;;;;;;5040348;28;20045;-63
2022/05/08 04:03:19;;;;;;;8.73;4.10;;;;;;;;;;5043379;28;20060;-64
2022/05/08 04:05:45;;;;;;;8.35;4.18;;;;;;;;;;5041518;28;20147;-65
2022/05/08 04:08:10;;;;;;;10.98;4.28;;;;;;;;;;5037225;28;20141;-66
2022/05/08 04:10:36;;;;;;;4.97;3.65;;;;;;;;;;5042646;28;20438;-67
2022/05/08 04:13:02;;;;;;;4.43;3.47;;;;;;;;;;5041791;28;20053;-64
2022/05/08 04:18:14;;;;;;;7.72;3.65;;;;;;;;;;5040612;28;20232;-64
2022/05/08 04:20:40;;;;;;;7.00;3.58;;;;;;;;;;5042251;28;20523;-64
2022/05/08 04:25:52;;;;;;;;;;;;;;;;;;5046302;28;20053;-65
2022/05/08 04:28:19;;;;;;;6.85;3.40;;;;;;;;;;5041640;28;20343;-67
2022/05/08 04:30:46;;;;;;;7.43;2.80;;;;;;;;;;5041802;28;20068;-65
2022/05/08 04:33:12;;;;;;;5.03;2.92;;;;;;;;;;5040650;28;20274;-66
2022/05/08 04:35:37;;;;;;;5.25;2.92;;;;;;;;;;5043314;28;20094;-63
2022/05/08 04:38:03;;;;;;;7.32;3.15;;;;;;;;;;5040543;28;20072;-66
2022/05/08 04:40:29;;;;;;;4.80;3.20;;;;;;;;;;5040040;28;20080;-64
2022/05/08 04:42:55;;;;;;;5.03;3.05;;;;;;;;;;5041086;28;20479;-65
2022/05/08 04:45:21;;;;;;;6.05;2.83;;;;;;;;;;5039786;28;20057;-65
2022/05/08 04:47:47;;;;;;;4.65;2.25;;;;;;;;;;5038738;28;20622;-67
2022/05/08 04:50:13;;;;;;;5.50;2.10;;;;;;;;;;5038423;28;20037;-65
2022/05/08 04:52:38;;;;;;;3.08;2.20;;;;;;;;;;5041788;28;20049;-64
2022/05/08 04:55:05;;;;;;;8.55;2.20;;;;;;;;;;5043769;28;20098;-65
2022/05/08 04:57:31;;;;;;;2.72;1.92;;;;;;;;;;5042456;28;20049;-65
2022/05/08 04:59:57;;;;;;;3.45;2.20;;;;;;;;;;5039015;28;20060;-64
2022/05/08 05:02:24;;;;;;;4.20;2.10;;;;;;;;;;5040348;28;20076;-66
2022/05/08 05:04:50;;;;;;;5.00;2.15;;;;;;;;;;5040125;28;20481;-64
2022/05/08 05:07:16;;;;;;;2.45;2.00;;;;;;;;;;5039922;28;20049;-65
2022/05/08 05:09:42;;;;;;;4.45;2.13;;;;;;;;;;5037703;28;20047;-65
2022/05/08 05:12:08;;;;;;;6.43;2.40;;;;;;;;;;5042872;28;20041;-64
2022/05/08 05:14:34;;;;;;;6.05;2.30;;;;;;;;;;5042251;28;20057;-68
2022/05/08 05:17:00;;;;;;;4.78;2.10;;;;;;;;;;5041119;28;20103;-64
2022/05/08 05:19:27;;;;;;;3.90;2.25;;;;;;;;;;5036920;28;20409;-65
2022/05/08 05:21:53;;;;;;;5.03;2.28;;;;;;;;;;5039386;28;20048;-64
2022/05/08 05:24:19;;;;;;;5.55;2.30;;;;;;;;;;5039884;28;20045;-65
2022/05/08 05:26:45;;;;;;;5.38;2.40;;;;;;;;;;5039803;28;20430;-64
2022/05/08 05:29:10;;;;;;;3.58;2.10;;;;;;;;;;5038797;28;20132;-64
2022/05/08 05:31:36;;;;;;;3.30;2.00;;;;;;;;;;5041667;28;20045;-65
2022/05/08 05:34:02;;;;;;;5.10;2.17;;;;;;;;;;5042441;28;20045;-64
2022/05/08 05:36:28;;;;;;;5.07;2.70;;;;;;;;;;5039771;28;20195;-67
2022/05/08 05:38:54;;;;;;;7.68;2.33;;;;;;;;;;5037048;28;20048;-67
2022/05/08 05:41:20;;;;;;;5.20;2.15;;;;;;;;;;5042744;28;20075;-66
2022/05/08 05:43:46;;;;;;;6.15;2.63;;;;;;;;;;5041341;28;20056;-64
2022/05/08 05:48:57;;;;;;;4.55;2.45;;;;;;;;;;5036086;28;20049;-69
2022/05/08 05:51:23;;;;;;;5.72;2.50;;;;;;;;;;5035233;28;20528;-64
2022/05/08 05:53:49;;;;;;;5.53;2.88;;;;;;;;;;5038127;28;20072;-64
2022/05/08 05:56:14;;;;;;;4.25;2.58;;;;;;;;;;5042290;28;20052;-64
2022/05/08 05:58:40;;;;;;;3.95;2.30;;;;;;;;;;5038245;28;20124;-65
2022/05/08 06:01:06;;;;;;;4.45;2.90;;;;;;;;;;5041015;28;20063;-66
2022/05/08 06:03:32;;;;;;;10.10;3.05;;;;;;;;;;5038354;28;20539;-65
2022/05/08 06:05:58;;;;;;;7.22;2.50;;;;;;;;;;5042443;28;20441;-63
2022/05/08 06:08:24;;;;;;;5.95;2.85;;;;;;;;;;5039439;28;20094;-65
2022/05/08 06:10:50;;;;;;;6.45;2.45;;;;;;;;;;5041367;28;20057;-65
2022/05/08 06:13:17;;;;;;;5.57;2.60;;;;;;;;;;5043745;28;20147;-65
2022/05/08 06:15:43;;;;;;;4.43;2.90;;;;;;;;;;5038618;28;20049;-70
2022/05/08 06:18:08;;;;;;;5.65;2.60;;;;;;;;;;5038374;28;20049;-67
2022/05/08 06:20:35;;;;;;;4.28;2.50;;;;;;;;;;5041443;28;20056;-67
2022/05/08 06:23:01;;;;;;;7.00;3.25;;;;;;;;;;5035074;28;20044;-69
2022/05/08 06:25:26;;;;;;;9.60;3.60;;;;;;;;;;5037898;28;20590;-68
2022/05/08 06:27:52;;;;;;;8.38;2.90;;;;;;;;;;5034409;28;20489;-72
2022/05/08 06:30:18;;;;;;;5.90;3.55;;;;;;;;;;5038325;28;20083;-70
2022/05/08 06:32:44;;;;;;;8.00;2.78;;;;;;;;;;5036109;28;20155;-67
2022/05/08 06:35:10;;;;;;;4.57;2.80;;;;;;;;;;5038296;28;20059;-67
2022/05/08 06:37:36;;;;;;;8.60;3.03;;;;;;;;;;5042074;28;20427;-70
2022/05/08 06:40:02;;;;;;;4.47;2.67;;;;;;;;;;5038762;28;20049;-69
2022/05/08 06:42:28;;;;;;;6.38;2.60;;;;;;;;;;5039316;28;20052;-71
2022/05/08 06:44:54;;;;;;;8.57;2.78;;;;;;;;;;5041613;28;20420;-67
2022/05/08 06:47:20;;;;;;;7.07;3.00;;;;;;;;;;5044211;28;20049;-68
2022/05/08 06:49:45;;;;;;;6.63;2.30;;;;;;;;;;5040407;28;20049;-69
2022/05/08 06:52:12;;;;;;;6.75;2.97;;;;;;;;;;5045729;28;20130;-67
2022/05/08 06:54:37;;;;;;;6.10;2.42;;;;;;;;;;5048953;28;20049;-67
2022/05/08 06:57:04;;;;;;;5.13;2.78;;;;;;;;;;5046155;28;20075;-66
2022/05/08 07:02:15;;;;;;;7.75;4.22;;;;;;;;;;5040701;28;20469;-65
2022/05/08 07:04:41;;;;;;;7.22;4.60;;;;;;;;;;5045940;28;20049;-70
2022/05/08 07:07:06;;;;;;;6.50;3.00;;;;;;;;;;5046796;28;20095;-66
2022/05/08 07:09:34;;;;;;;6.47;3.40;;;;;;;;;;5039580;28;20152;-65
2022/05/08 07:12:00;;;;;;;6.13;2.53;;;;;;;;;;5048134;28;20171;-69
2022/05/08 07:14:26;;;;;;;6.63;2.95;;;;;;;;;;5045929;28;20081;-72
2022/05/08 07:16:52;;;;;;;11.02;2.65;;;;;;;;;;5044982;28;20103;-66
2022/05/08 07:19:18;;;;;;;6.20;3.10;;;;;;;;;;5043185;28;20048;-64
2022/05/08 07:21:44;;;;;;;3.88;2.40;;;;;;;;;;5047086;28;20048;-64
2022/05/08 07:24:10;;;;;;;7.90;2.70;;;;;;;;;;5043706;28;20095;-67
2022/05/08 07:26:36;;;;;;;6.53;2.35;;;;;;;;;;5045912;28;20041;-68
2022/05/08 07:29:04;;;;;;;9.23;2.83;;;;;;;;;;5042422;28;20041;-64
2022/05/08 07:31:31;;;;;;;6.95;2.47;;;;;;;;;;5037548;28;20041;-66
2022/05/08 07:36:42;;;;;;;9.30;3.28;;;;;;;;;;5042263;28;20434;-64
2022/05/08 07:39:08;;;;;;;6.35;2.83;;;;;;;;;;5036019;28;20511;-64
2022/05/08 07:41:34;;;;;;;6.07;2.53;;;;;;;;;;5040707;28;20037;-65
2022/05/08 07:44:00;;;;;;;6.45;2.60;;;;;;;;;;5042524;28;20045;-64
2022/05/08 07:46:26;;;;;;;9.55;2.90;;;;;;;;;;5035611;28;20075;-67
2022/05/08 07:48:53;;;;;;;6.22;2.60;;;;;;;;;;5037213;28;20427;-64
2022/05/08 07:51:19;;;;;;;6.47;2.78;;;;;;;;;;5042427;28;20050;-63
2022/05/08 07:53:45;;;;;;;7.03;2.63;;;;;;;;;;5040896;28;20053;-65
2022/05/08 07:56:11;;;;;;;5.95;2.45;;;;;;;;;;5036986;28;20121;-65
2022/05/08 07:58:37;;;;;;;8.88;2.70;;;;;;;;;;5045991;28;20053;-65
2022/05/08 08:01:03;;;;;;;8.82;2.80;;;;;;;;;;5046968;28;20136;-66
2022/05/08 08:03:31;;;;;;;4.45;2.40;;;;;;;;;;5038392;28;20041;-64
2022/05/08 08:05:58;;;;;;;10.00;3.10;;;;;;;;;;5050216;28;20056;-62
2022/05/08 08:08:25;;;;;;;8.68;3.28;;;;;;;;;;5043066;28;20056;-65
2022/05/08 08:11:03;;;;;;;9.15;3.15;;;;;;;;;;5053107;28;20041;-64
2022/05/08 08:13:31;;;;;;;9.75;3.22;;;;;;;;;;5045002;28;20677;-66
2022/05/08 08:15:58;;;;;;;7.15;2.90;;;;;;;;;;5037028;28;20110;-63
2022/05/08 08:18:24;;;;;;;5.10;2.63;;;;;;;;;;5041197;28;20052;-62
2022/05/08 08:20:50;;;;;;;7.28;2.85;;;;;;;;;;5045983;28;20055;-65
2022/05/08 08:23:16;;;;;;;9.93;2.90;;;;;;;;;;5047985;28;20049;-67
2022/05/08 08:25:43;;;;;;;5.25;2.70;;;;;;;;;;5052996;28;20048;-71
2022/05/08 08:28:09;;;;;;;6.15;2.92;;;;;;;;;;5044745;28;20141;-63
2022/05/08 08:30:35;;;;;;;9.25;3.05;;;;;;;;;;5049568;28;20120;-66
2022/05/08 08:33:01;;;;;;;6.05;2.70;;;;;;;;;;5034924;28;20053;-68
2022/05/08 08:35:27;;;;;;;8.00;2.75;;;;;;;;;;5041577;28;20120;-66
2022/05/08 08:37:53;;;;;;;7.68;2.85;;;;;;;;;;5041759;28;20371;-64
2022/05/08 08:40:20;;;;;;;6.53;2.60;;;;;;;;;;5049650;28;20045;-63
2022/05/08 08:42:49;;;;;;;11.43;2.80;;;;;;;;;;5048018;28;20551;-64
2022/05/08 08:48:08;;;;;;;6.13;2.65;;;;;;;;;;5040100;28;20037;-65
2022/05/08 08:50:35;;;;;;;12.98;3.33;;;;;;;;;;5040869;28;20052;-64
2022/05/08 08:53:05;;;;;;;7.65;2.92;;;;;;;;;;5039560;28;20583;-65
2022/05/08 08:55:32;;;;;;;13.48;4.35;;;;;;;;;;5040124;28;20101;-64
2022/05/08 08:57:58;;;;;;;15.27;4.05;;;;;;;;;;5038935;28;20492;-65
2022/05/08 09:00:25;;;;;;;15.48;4.22;;;;;;;;;;5044416;28;20044;-67
2022/05/08 09:02:53;;;;;;;8.27;3.38;;;;;;;;;;5041281;28;20447;-65
2022/05/08 09:05:19;;;;;;;10.45;2.92;;;;;;;;;;5038247;28;21178;-62
2022/05/08 09:07:47;;;;;;;11.88;3.45;;;;;;;;;;5038106;28;20045;-62
2022/05/08 09:10:22;;;;;;;7.85;2.70;;;;;;;;;;5041632;28;20037;-65
2022/05/08 09:12:54;;;;;;;7.32;3.05;;;;;;;;;;5039695;28;20053;-65
2022/05/08 09:15:26;;;;;;;11.40;3.85;;;;;;;;;;5044092;28;20091;-63
2022/05/08 09:17:55;;;;;;;16.00;4.30;;;;;;;;;;5038934;28;20045;-69
2022/05/08 09:20:29;;;;;;;6.75;3.00;;;;;;;;;;5040207;28;20061;-68
2022/05/08 09:23:03;;;;;;;12.57;3.35;;;;;;;;;;5044247;28;20049;-67
2022/05/08 09:25:59;;;;;;;6.43;3.00;;;;;;;;;;5048483;28;20053;-69
2022/05/08 09:28:31;;;;;;;7.07;2.58;;;;;;;;;;5036632;28;20149;-68
2022/05/08 09:30:57;;;;;;;7.00;2.20;;;;;;;;;;5048701;28;20055;-66
2022/05/08 09:33:25;;;;;;;7.60;2.17;;;;;;;;;;5036981;28;20120;-67
2022/05/08 09:35:51;;;;;;;8.57;2.60;;;;;;;;;;5038981;28;20075;-67
2022/05/08 09:38:17;;;;;;;6.43;2.13;;;;;;;;;;5037814;28;20045;-70
2022/05/08 09:40:45;;;;;;;6.03;2.60;;;;;;;;;;5065824;28;20443;-70
2022/05/08 09:43:28;;;;;;;6.03;2.15;;;;;;;;;;5042893;28;20436;-66
2022/05/08 09:45:59;;;;;;;5.35;2.28;;;;;;;;;;5046014;28;20033;-67
2022/05/08 09:48:26;;;;;;;9.90;2.50;;;;;;;;;;5050003;28;20119;-76
2022/05/08 09:51:00;;;;;;;5.07;2.42;;;;;;;;;;5049021;28;20045;-69
2022/05/08 09:53:27;;;;;;;9.73;2.35;;;;;;;;;;5033165;28;20488;-65
2022/05/08 09:55:57;;;;;;;5.25;2.45;;;;;;;;;;5048263;28;20231;-68
2022/05/08 09:58:24;;;;;;;5.13;2.33;;;;;;;;;;5047406;28;20127;-67
2022/05/08 10:00:51;;;;;;;4.15;2.28;;;;;;;;;;5037913;28;20220;-67
2022/05/08 10:03:18;;;;;;;10.52;2.55;;;;;;;;;;5046605;28;20049;-70
2022/05/08 10:05:44;;;;;;;5.18;2.00;;;;;;;;;;5046734;28;20048;-68
2022/05/08 10:08:13;;;;;;;11.00;2.40;;;;;;;;;;5046284;28;20443;-68
2022/05/08 10:14:04;;;;;;;6.72;2.53;;;;;;;;;;5041550;28;20631;-68
2022/05/08 10:16:45;;;;;;;5.72;2.28;;;;;;;;;;5047641;28;20037;-66
2022/05/08 10:19:21;;;;;;;5.35;2.42;;;;;;;;;;5040406;28;20116;-67
2022/05/08 10:21:53;;;;;;;8.73;2.50;;;;;;;;;;5045613;28;20064;-66
2022/05/08 10:24:36;;;;;;;3.95;2.38;;;;;;;;;;5039065;28;20507;-69
2022/05/08 10:27:25;;;;;;;6.95;2.53;;;;;;;;;;5037508;28;20050;-69
2022/05/08 10:29:51;;;;;;;6.50;2.47;;;;;;;;;;5044364;28;20052;-69
2022/05/08 10:32:32;;;;;;;6.93;2.15;;;;;;;;;;5048163;28;20074;-69
2022/05/08 10:35:17;;;;;;;4.10;2.30;;;;;;;;;;5047094;28;20599;-66
2022/05/08 10:37:47;;;;;;;9.20;2.92;;;;;;;;;;5048552;28;20076;-66
2022/05/08 10:40:22;;;;;;;11.45;4.60;;;;;;;;;;5049461;28;20079;-65
2022/05/08 10:42:54;;;;;;;6.35;3.33;;;;;;;;;;5033737;28;20090;-67
2022/05/08 10:45:33;;;;;;;7.10;2.63;;;;;;;;;;5037499;28;20052;-67
2022/05/08 10:48:15;;;;;;;8.77;3.08;;;;;;;;;;5049068;28;20049;-66
2022/05/08 10:50:48;;;;;;;8.90;3.10;;;;;;;;;;5048836;28;20045;-67
2022/05/08 10:53:33;;;;;;;7.35;2.72;;;;;;;;;;5048529;28;20068;-68
2022/05/08 10:56:00;;;;;;;5.72;2.50;;;;;;;;;;5035992;28;20064;-67
2022/05/08 10:58:26;;;;;;;7.65;2.80;;;;;;;;;;5033600;28;20045;-66
2022/05/08 11:01:00;;;;;;;7.32;2.75;;;;;;;;;;5047572;28;20037;-68
2022/05/08 11:03:28;;;;;;;12.05;3.20;;;;;;;;;;5048594;28;20419;-66
2022/05/08 11:05:55;;;;;;;6.22;2.65;;;;;;;;;;5049717;28;20076;-66
2022/05/08 11:08:31;;;;;;;9.18;3.03;;;;;;;;;;5044685;28;20399;-71
2022/05/08 11:10:59;;;;;;;5.10;2.50;;;;;;;;;;5031421;28;20076;-68
2022/05/08 11:13:35;;;;;;;5.95;2.65;;;;;;;;;;5029164;28;20449;-68
2022/05/08 11:16:01;;;;;;;7.25;2.90;;;;;;;;;;5045957;28;20045;-69
2022/05/08 11:18:27;;;;;;;6.20;2.90;;;;;;;;;;5049050;28;20079;-71
2022/05/08 11:21:02;;;;;;;5.10;2.50;;;;;;;;;;5049502;28;20057;-67
2022/05/08 11:23:33;;;;;;;9.45;2.90;;;;;;;;;;5046461;28;20123;-70
2022/05/08 11:26:06;;;;;;;5.80;2.75;;;;;;;;;;5048814;28;20060;-70
2022/05/08 11:28:35;;;;;;;7.88;3.10;;;;;;;;;;5049496;28;20500;-69
2022/05/08 11:31:13;;;;;;;7.90;2.50;;;;;;;;;;5041777;28;20065;-67
2022/05/08 11:36:31;;;;;;;9.25;3.03;;;;;;;;;;5033632;28;20085;-69
2022/05/08 11:39:00;;;;;;;5.07;2.38;;;;;;;;;;5037617;28;20575;-67
2022/05/08 11:41:27;;;;;;;7.90;2.90;;;;;;;;;;5050106;28;20049;-67
2022/05/08 11:43:55;;;;;;;8.50;2.50;;;;;;;;;;5050800;28;20057;-66
2022/05/08 11:46:38;;;;;;;5.78;2.40;;;;;;;;;;5036936;28;20247;-67
2022/05/08 11:49:13;;;;;;;6.68;2.90;;;;;;;;;;5044623;28;20040;-70
2022/05/08 11:51:51;;;;;;;7.78;2.55;;;;;;;;;;5045120;28;20188;-69
2022/05/08 11:54:38;;;;;;;5.45;2.70;;;;;;;;;;5050941;28;20480;-68
2022/05/08 11:57:17;;;;;;;7.60;3.20;;;;;;;;;;5030162;28;20496;-67
2022/05/08 11:59:45;;;;;;;6.18;3.20;;;;;;;;;;5041089;28;20045;-68
2022/05/08 12:02:12;;;;;;;8.00;3.30;;;;;;;;;;5050782;28;20523;-68
2022/05/08 12:04:38;;;;;;;10.00;3.17;;;;;;;;;;5050488;28;20049;-65
2022/05/08 12:07:07;;;;;;;6.28;3.50;;;;;;;;;;5048300;28;20073;-67
2022/05/08 12:09:34;;;;;;;7.07;3.10;;;;;;;;;;5043931;28;20435;-70
2022/05/08 12:12:26;;;;;;;7.22;3.10;;;;;;;;;;5050774;28;20359;-66
2022/05/08 12:15:03;;;;;;;6.97;2.83;;;;;;;;;;5031221;28;20096;-68
2022/05/08 12:17:39;;;;;;;4.32;2.30;;;;;;;;;;5042056;28;20052;-68
2022/05/08 12:20:19;;;;;;;6.85;2.70;;;;;;;;;;5033053;28;20038;-67
2022/05/08 12:23:06;;;;;;;10.25;4.20;;;;;;;;;;5030924;28;20053;-68
2022/05/08 12:25:34;;;;;;;5.70;3.35;;;;;;;;;;5034007;28;20050;-70
2022/05/08 12:28:00;;;;;;;4.10;2.75;;;;;;;;;;5031407;28;20390;-69
2022/05/08 12:30:26;;;;;;;5.57;2.80;;;;;;;;;;5044812;28;20481;-68
2022/05/08 12:32:53;;;;;;;6.60;3.00;;;;;;;;;;5050871;28;20052;-69
2022/05/08 12:35:21;;;;;;;9.18;3.85;;;;;;;;;;5033775;28;20049;-70
2022/05/08 12:37:49;;;;;;;4.47;2.90;;;;;;;;;;5048253;28;20045;-72
2022/05/08 12:40:17;;;;;;;7.75;3.58;;;;;;;;;;5041091;28;20053;-69
2022/05/08 12:42:43;;;;;;;7.78;3.05;;;;;;;;;;5045528;28;20037;-66
2022/05/08 12:45:10;;;;;;;4.70;2.97;;;;;;;;;;5049195;28;20044;-68
2022/05/08 12:47:36;;;;;;;6.50;3.42;;;;;;;;;;5049288;28;20566;-68
2022/05/08 12:50:04;;;;;;;4.38;3.28;;;;;;;;;;5049927;28;20128;-69
2022/05/08 12:52:30;;;;;;;8.13;3.40;;;;;;;;;;5049251;28;20092;-68
2022/05/08 12:54:56;;;;;;;5.57;3.00;;;;;;;;;;5057662;28;20284;-67
2022/05/08 13:00:06;;;;;;;;;;;;;;;;;;5042805;28;20051;-69
2022/05/08 13:02:31;;;;;;;6.78;3.97;;;;;;;;;;5030523;28;19921;-66
2022/05/08 13:04:58;;;;;;;5.00;3.15;;;;;;;;;;5030979;28;20071;-70
2022/05/08 13:07:24;;;;;;;5.57;3.85;;;;;;;;;;5031174;28;20460;-69
2022/05/08 13:09:50;;;;;;;8.13;3.88;;;;;;;;;;5036589;28;20051;-68
2022/05/08 13:12:16;;;;;;;6.45;4.00;;;;;;;;;;5045369;28;20036;-68
2022/05/08 13:14:42;;;;;;;5.28;3.60;;;;;;;;;;5049841;28;20063;-67
2022/05/08 13:17:08;;;;;;;8.57;3.95;;;;;;;;;;5045499;28;20135;-69
2022/05/08 13:19:35;;;;;;;4.43;3.38;;;;;;;;;;5030979;28;20144;-69
2022/05/08 13:22:03;;;;;;;6.10;4.20;;;;;;;;;;5040623;28;20044;-68
2022/05/08 13:24:28;;;;;;;12.82;4.22;;;;;;;;;;5044907;28;20491;-67
2022/05/08 13:26:57;;;;;;;7.35;3.83;;;;;;;;;;5038998;28;20075;-68
2022/05/08 13:29:24;;;;;;;11.07;4.70;;;;;;;;;;5048486;28;20068;-68
2022/05/08 13:31:51;;;;;;;7.03;4.22;;;;;;;;;;5043916;28;20044;-69
2022/05/08 13:34:18;;;;;;;9.07;4.35;;;;;;;;;;5050536;28;20044;-67
2022/05/08 13:36:47;;;;;;;10.63;4.80;;;;;;;;;;5050673;28;20041;-67
2022/05/08 13:39:13;;;;;;;8.55;4.50;;;;;;;;;;5048980;28;20047;-68
2022/05/08 13:41:40;;;;;;;7.50;4.05;;;;;;;;;;5038486;28;20140;-67
2022/05/08 13:44:06;;;;;;;9.45;4.60;;;;;;;;;;5033230;28;20052;-67
2022/05/08 13:46:32;;;;;;;12.05;4.25;;;;;;;;;;5047210;28;20041;-68
2022/05/08 13:48:57;;;;;;;6.72;4.25;;;;;;;;;;5048178;28;20095;-69
2022/05/08 13:51:23;;;;;;;8.10;3.65;;;;;;;;;;5036484;28;20598;-67
2022/05/08 13:53:49;;;;;;;7.88;3.85;;;;;;;;;;5048054;28;20048;-68
2022/05/08 13:56:15;;;;;;;5.40;3.13;;;;;;;;;;5045237;28;20037;-67
2022/05/08 13:58:41;;;;;;;6.60;4.00;;;;;;;;;;5035286;28;20565;-68
2022/05/08 14:01:07;;;;;;;6.60;3.67;;;;;;;;;;5033512;28;20045;-67
2022/05/08 14:03:32;;;;;;;5.55;3.58;;;;;;;;;;5040350;28;20408;-67
2022/05/08 14:06:00;;;;;;;4.63;3.10;;;;;;;;;;5047757;28;20052;-68
2022/05/08 14:08:26;;;;;;;4.07;3.00;;;;;;;;;;5047639;28;20037;-67
2022/05/08 14:10:52;;;;;;;4.95;3.20;;;;;;;;;;5042616;28;20063;-71
2022/05/08 14:13:18;;;;;;;8.32;3.05;;;;;;;;;;5038208;28;20052;-71
2022/05/08 14:15:44;;;;;;;7.20;3.35;;;;;;;;;;5048729;28;20067;-70
2022/05/08 14:18:10;;;;;;;4.78;3.00;;;;;;;;;;5042964;28;20049;-68
2022/05/08 14:20:36;;;;;;;5.97;3.65;;;;;;;;;;5031676;28;20132;-67
2022/05/08 14:23:03;;;;;;;4.78;2.80;;;;;;;;;;5036838;28;20083;-69
2022/05/08 14:25:28;;;;;;;4.32;2.70;;;;;;;;;;5028192;28;20057;-69
2022/05/08 14:27:55;;;;;;;6.38;2.75;;;;;;;;;;5038573;28;20143;-68
2022/05/08 14:30:21;;;;;;;6.00;2.30;;;;;;;;;;5045218;28;20124;-68
2022/05/08 14:38:19;;;;;;;7.15;2.90;;;;;;;;;;5043272;28;20043;-68
2022/05/08 14:40:45;;;;;;;5.95;2.85;;;;;;;;;;5041618;28;20408;-69
2022/05/08 14:43:11;;;;;;;5.55;2.60;;;;;;;;;;5038965;28;20404;-69
2022/05/08 14:45:37;;;;;;;5.00;2.97;;;;;;;;;;5050358;28;20045;-69
2022/05/08 14:48:04;;;;;;;4.38;2.58;;;;;;;;;;5053221;28;20649;-69
2022/05/08 14:50:32;;;;;;;4.72;2.83;;;;;;;;;;5045173;28;20048;-67
2022/05/08 14:53:00;;;;;;;9.80;3.25;;;;;;;;;;5047831;28;20053;-70
2022/05/08 14:55:27;;;;;;;7.38;2.90;;;;;;;;;;5043797;28;20120;-69
2022/05/08 14:57:54;;;;;;;4.53;2.70;;;;;;;;;;5035299;28;20041;-73
2022/05/08 15:00:21;;;;;;;5.18;2.60;;;;;;;;;;5046377;28;20037;-67
2022/05/08 15:02:48;;;;;;;9.77;2.90;;;;;;;;;;5049399;28;20068;-68
2022/05/08 15:05:14;;;;;;;6.38;2.50;;;;;;;;;;5049195;28;20091;-69
2022/05/08 15:07:40;;;;;;;6.95;2.72;;;;;;;;;;5035594;28;20042;-68
2022/05/08 15:10:06;;;;;;;6.22;3.15;;;;;;;;;;5035593;28;20046;-69
2022/05/08 15:12:35;;;;;;;8.80;2.72;;;;;;;;;;5041152;28;20048;-70
2022/05/08 15:15:02;;;;;;;6.90;2.85;;;;;;;;;;5042037;28;20045;-67
2022/05/08 15:17:29;;;;;;;9.32;3.20;;;;;;;;;;5041657;28;20090;-69
2022/05/08 15:19:55;;;;;;;5.55;2.90;;;;;;;;;;5050169;28;20045;-69
2022/05/08 15:22:20;;;;;;;6.25;3.22;;;;;;;;;;5034762;28;20046;-68
2022/05/08 15:24:46;;;;;;;5.50;3.40;;;;;;;;;;5047144;28;20151;-68